Time;durP1;ratioP1;P1;durP2;ratioP2;P2;SDS_P1;SDS_P2;PMS_P1;PMS_P2;Temp;Humidity;BMP_temperature;BMP_pressure;BME280_temperature;BME280_humidity;BME280_pressure;Samples;Min_cycle;Max_cycle;Signal;HPM_P1;HPM_P2
2022/03/03 00:04:51;;;;;;;9.15;3.53;;;4.80;99.90;;;;;;20662437;28;20045;-44
2022/03/03 00:14:52;;;;;;;6.50;3.22;;;4.70;99.90;;;;;;20654353;28;20054;-45
2022/03/03 00:24:53;;;;;;;11.27;3.25;;;4.70;99.90;;;;;;20645831;28;20034;-45
2022/03/03 00:34:54;;;;;;;10.68;4.30;;;4.60;99.90;;;;;;20652826;28;20153;-44
2022/03/03 00:44:55;;;;;;;8.98;3.67;;;4.40;99.90;;;;;;20659615;28;20046;-44
2022/03/03 00:54:57;;;;;;;7.25;2.95;;;4.40;99.90;;;;;;20664355;28;20073;-45
2022/03/03 01:04:58;;;;;;;9.50;3.33;;;4.30;99.90;;;;;;20658640;28;20143;-44
2022/03/03 01:15:00;;;;;;;11.57;3.63;;;4.30;99.90;;;;;;20680904;28;20049;-44
2022/03/03 01:25:04;;;;;;;8.32;3.13;;;4.10;99.90;;;;;;20666410;28;20046;-44
2022/03/03 01:35:06;;;;;;;9.10;3.53;;;4.10;99.90;;;;;;20669252;28;20045;-45
2022/03/03 01:45:08;;;;;;;11.10;3.70;;;3.90;99.90;;;;;;20651967;28;20045;-44
2022/03/03 01:55:10;;;;;;;9.40;4.43;;;3.80;99.90;;;;;;20671011;28;20045;-44
2022/03/03 02:05:12;;;;;;;9.40;3.78;;;3.80;99.90;;;;;;20659419;28;20044;-44
2022/03/03 02:15:18;;;;;;;8.95;3.70;;;3.70;99.90;;;;;;20657429;28;20033;-44
2022/03/03 02:25:20;;;;;;;7.80;2.97;;;3.60;99.90;;;;;;20645082;28;20455;-44
2022/03/03 02:35:21;;;;;;;7.63;3.22;;;3.50;99.90;;;;;;20654871;28;20421;-44
2022/03/03 02:45:22;;;;;;;10.82;3.25;;;3.40;99.90;;;;;;20665943;28;20045;-44
2022/03/03 02:55:23;;;;;;;9.07;3.78;;;3.30;99.90;;;;;;20661902;28;20046;-45
2022/03/03 03:05:24;;;;;;;6.53;2.85;;;3.30;99.90;;;;;;20654858;28;20046;-44
2022/03/03 03:15:26;;;;;;;11.38;3.53;;;3.10;99.90;;;;;;20665395;28;20041;-44
2022/03/03 03:25:28;;;;;;;10.98;3.40;;;3.00;99.90;;;;;;20661816;28;20038;-45
2022/03/03 03:35:29;;;;;;;9.23;3.35;;;2.90;99.90;;;;;;20659759;28;20438;-44
2022/03/03 03:45:31;;;;;;;7.18;3.25;;;2.90;99.90;;;;;;20657432;28;20391;-45
2022/03/03 03:55:32;;;;;;;9.55;2.92;;;2.90;99.90;;;;;;20671466;28;20054;-44
2022/03/03 04:05:33;;;;;;;9.20;3.22;;;2.80;99.90;;;;;;20665300;28;20051;-44
2022/03/03 04:15:34;;;;;;;10.55;3.92;;;2.70;99.90;;;;;;20668403;28;20176;-44
2022/03/03 04:25:36;;;;;;;8.82;3.25;;;2.60;99.90;;;;;;20666193;28;20042;-44
2022/03/03 04:35:37;;;;;;;10.82;3.80;;;2.60;99.90;;;;;;20661106;28;20057;-45
2022/03/03 04:45:39;;;;;;;10.60;3.13;;;2.50;99.90;;;;;;20671216;28;20458;-44
2022/03/03 04:55:40;;;;;;;11.35;3.03;;;2.50;99.90;;;;;;20668483;28;20050;-44
2022/03/03 05:05:41;;;;;;;12.57;4.15;;;2.40;99.90;;;;;;20667545;28;20080;-44
2022/03/03 05:15:43;;;;;;;9.80;3.17;;;2.30;99.90;;;;;;20671128;28;20329;-45
2022/03/03 05:25:44;;;;;;;11.60;2.97;;;2.30;99.90;;;;;;20670095;28;20040;-44
2022/03/03 05:35:48;;;;;;;9.88;3.65;;;2.20;99.90;;;;;;20671620;28;20046;-45
2022/03/03 05:45:49;;;;;;;8.98;3.35;;;2.20;99.90;;;;;;20677181;28;20042;-44
2022/03/03 05:55:59;;;;;;;10.68;3.28;;;2.10;99.90;;;;;;20663994;28;20511;-44
2022/03/03 06:06:14;;;;;;;6.03;2.55;;;2.00;99.90;;;;;;20669426;28;20465;-45
2022/03/03 06:16:17;;;;;;;7.10;2.65;;;2.00;99.90;;;;;;20670819;28;21482;-44
2022/03/03 06:26:20;;;;;;;9.15;3.22;;;1.90;99.90;;;;;;20668219;28;20027;-44
2022/03/03 06:36:21;;;;;;;13.13;3.55;;;2.00;99.90;;;;;;20671699;28;20545;-44
2022/03/03 06:46:22;;;;;;;7.22;3.17;;;1.90;99.90;;;;;;20665079;28;20045;-44
2022/03/03 06:56:25;;;;;;;7.20;2.88;;;1.70;99.90;;;;;;20668017;28;20673;-44
2022/03/03 07:06:27;;;;;;;8.30;2.90;;;1.70;99.90;;;;;;20673296;28;20041;-44
2022/03/03 07:16:42;;;;;;;13.05;3.40;;;1.60;99.90;;;;;;20674920;28;20054;-45
2022/03/03 07:26:46;;;;;;;14.35;4.10;;;1.70;99.90;;;;;;20679610;28;20474;-44
2022/03/03 07:36:48;;;;;;;11.95;3.70;;;1.70;99.90;;;;;;20679837;28;20053;-44
2022/03/03 07:46:50;;;;;;;12.60;4.10;;;2.00;99.90;;;;;;20683110;28;20042;-44
2022/03/03 07:56:56;;;;;;;8.90;3.90;;;2.20;99.90;;;;;;20673445;28;20095;-44
2022/03/03 08:07:08;;;;;;;15.73;4.70;;;2.50;99.90;;;;;;20674600;28;20038;-44
2022/03/03 08:17:15;;;;;;;10.75;3.65;;;3.00;99.90;;;;;;20669021;28;20042;-44
2022/03/03 08:27:19;;;;;;;10.95;4.45;;;3.40;99.90;;;;;;20677529;28;21282;-44
2022/03/03 08:37:34;;;;;;;9.27;3.60;;;3.90;99.90;;;;;;20669147;28;20046;-44
2022/03/03 08:47:36;;;;;;;9.77;4.20;;;4.50;99.90;;;;;;20650172;28;20423;-44
2022/03/03 08:57:38;;;;;;;8.20;3.80;;;5.00;99.90;;;;;;20654843;28;20054;-44
2022/03/03 09:07:39;;;;;;;10.93;4.07;;;5.50;99.90;;;;;;20651344;28;20037;-44
2022/03/03 09:17:41;;;;;;;13.23;3.92;;;5.90;99.90;;;;;;20654054;28;20412;-44
2022/03/03 09:27:42;;;;;;;9.77;4.22;;;6.40;99.90;;;;;;20636953;28;20498;-44
2022/03/03 09:37:43;;;;;;;10.18;4.10;;;7.00;99.90;;;;;;20643271;28;20046;-44
2022/03/03 09:47:45;;;;;;;8.18;3.60;;;7.50;99.90;;;;;;20640167;28;20052;-44
2022/03/03 09:57:48;;;;;;;9.77;4.30;;;8.30;97.70;;;;;;20620942;28;20049;-44
2022/03/03 10:07:59;;;;;;;8.32;3.67;;;8.60;97.60;;;;;;20639295;28;20049;-44
2022/03/03 10:18:11;;;;;;;8.95;3.72;;;9.00;94.60;;;;;;20643059;28;20058;-44
2022/03/03 10:28:18;;;;;;;10.05;3.75;;;9.30;94.60;;;;;;20642389;28;20041;-44
2022/03/03 10:38:19;;;;;;;6.90;3.15;;;9.70;92.60;;;;;;20639760;28;20687;-45
2022/03/03 10:48:22;;;;;;;7.10;2.97;;;10.00;90.60;;;;;;20637072;28;20042;-45
2022/03/03 10:58:45;;;;;;;9.85;4.15;;;10.40;90.50;;;;;;20661124;28;20054;-45
2022/03/03 11:08:48;;;;;;;7.57;3.28;;;10.90;91.00;;;;;;20676248;28;20053;-45
2022/03/03 11:18:49;;;;;;;8.88;3.20;;;11.10;89.60;;;;;;20656321;28;20046;-45
2022/03/03 11:29:13;;;;;;;9.70;4.70;;;11.30;90.20;;;;;;20672264;28;20045;-45
2022/03/03 11:39:37;;;;;;;8.40;3.42;;;12.10;91.30;;;;;;21318371;23;20065;-86
2022/03/03 11:50:22;;;;;;;10.25;3.60;;;12.80;88.30;;;;;;20601266;28;20057;-85
2022/03/03 12:00:23;;;;;;;6.07;2.65;;;13.20;86.90;;;;;;20613741;28;20456;-87
2022/03/03 12:10:26;;;;;;;8.35;3.22;;;13.80;84.40;;;;;;20450589;28;20042;-84
2022/03/03 12:20:34;;;;;;;7.35;3.08;;;14.10;79.10;;;;;;20551052;28;20057;-84
2022/03/03 12:30:46;;;;;;;6.55;2.75;;;14.20;76.20;;;;;;20604726;28;20049;-83
2022/03/03 12:40:47;;;;;;;9.40;3.50;;;14.70;75.30;;;;;;20582788;28;20039;-83
2022/03/03 12:50:49;;;;;;;10.90;3.78;;;14.90;72.20;;;;;;20599067;28;20053;-82
2022/03/03 13:00:50;;;;;;;8.48;4.35;;;15.10;72.40;;;;;;20452606;28;20661;-82
2022/03/03 13:10:53;;;;;;;7.13;3.53;;;15.40;68.20;;;;;;20544501;28;20034;-83
2022/03/03 13:21:01;;;;;;;6.22;3.03;;;16.00;69.60;;;;;;20615126;28;20466;-83
2022/03/03 13:31:03;;;;;;;8.70;3.88;;;15.80;67.80;;;;;;20526582;28;20046;-83
2022/03/03 13:41:21;;;;;;;7.70;3.55;;;16.40;67.40;;;;;;20495942;28;20510;-84
2022/03/03 13:51:23;;;;;;;7.05;3.30;;;16.50;67.60;;;;;;20452859;28;20498;-84
2022/03/03 14:01:26;;;;;;;8.00;3.40;;;16.50;66.40;;;;;;20573365;28;20034;-83
2022/03/03 14:11:27;;;;;;;8.20;4.05;;;16.60;67.80;;;;;;20483657;28;20048;-82
2022/03/03 14:21:29;;;;;;;7.70;4.18;;;16.80;63.70;;;;;;20456651;28;20035;-82
2022/03/03 14:31:30;;;;;;;7.82;3.60;;;17.10;61.20;;;;;;20557581;28;20031;-81
2022/03/03 14:41:32;;;;;;;9.02;4.00;;;17.10;63.10;;;;;;20603476;28;20053;-82
2022/03/03 14:51:34;;;;;;;8.45;3.55;;;16.50;64.90;;;;;;20625038;28;20347;-84
2022/03/03 15:01:36;;;;;;;6.13;2.63;;;15.90;65.80;;;;;;20606685;28;20055;-84
2022/03/03 15:11:37;;;;;;;13.35;3.67;;;15.40;67.60;;;;;;20587592;28;20447;-86
2022/03/03 15:21:39;;;;;;;8.82;3.88;;;14.70;68.70;;;;;;20575310;28;20042;-85
2022/03/03 15:31:41;;;;;;;5.53;2.75;;;14.20;67.70;;;;;;20595148;28;20039;-83
2022/03/03 15:41:45;;;;;;;7.22;3.67;;;13.70;68.80;;;;;;20436558;28;20546;-83
2022/03/03 15:51:52;;;;;;;9.13;3.97;;;13.50;67.50;;;;;;20431269;28;20092;-84
2022/03/03 16:01:54;;;;;;;8.05;2.88;;;13.00;70.90;;;;;;20465721;28;20316;-84
2022/03/03 16:11:58;;;;;;;7.53;3.28;;;12.70;70.00;;;;;;20389291;28;20066;-84
2022/03/03 16:22:00;;;;;;;11.35;3.38;;;12.50;69.30;;;;;;20395933;28;20490;-84
2022/03/03 16:32:08;;;;;;;8.77;2.83;;;12.40;70.20;;;;;;20475681;28;20185;-85
2022/03/03 16:42:25;;;;;;;7.60;2.80;;;12.10;69.30;;;;;;20447042;28;20604;-83
2022/03/03 16:52:35;;;;;;;9.23;3.42;;;12.00;71.00;;;;;;20460886;28;20051;-86
2022/03/03 17:02:53;;;;;;;6.72;3.00;;;11.70;72.40;;;;;;20436657;28;20508;-83
2022/03/03 17:13:10;;;;;;;7.30;2.90;;;11.50;71.50;;;;;;20464902;28;20082;-83
2022/03/03 17:23:31;;;;;;;7.97;3.28;;;11.20;73.30;;;;;;20444810;28;20114;-83
2022/03/03 17:34:00;;;;;;;5.77;2.83;;;11.00;74.40;;;;;;20498179;28;20103;-82
2022/03/03 17:44:21;;;;;;;7.68;4.32;;;10.80;75.10;;;;;;20597360;28;20136;-81
2022/03/03 17:54:30;;;;;;;9.20;4.05;;;10.50;77.10;;;;;;20582167;28;20058;-83
2022/03/03 18:05:00;;;;;;;8.35;3.38;;;10.30;78.30;;;;;;20458639;28;20124;-83
2022/03/03 18:15:09;;;;;;;7.47;2.85;;;10.10;81.60;;;;;;20443483;28;20137;-83
2022/03/03 18:37:16;;;;;;;10.18;3.47;;;9.60;82.70;;;;;;20493500;28;20090;-83
2022/03/03 18:47:17;;;;;;;7.15;2.83;;;9.40;83.80;;;;;;20430003;28;20365;-46
2022/03/03 18:57:18;;;;;;;7.47;3.10;;;9.20;86.20;;;;;;20405959;28;20055;-46
2022/03/03 19:07:20;;;;;;;11.23;3.35;;;9.00;87.50;;;;;;20412581;28;20677;-46
2022/03/03 19:17:22;;;;;;;6.93;3.15;;;8.70;89.90;;;;;;20429344;28;20074;-45
2022/03/03 19:27:23;;;;;;;13.85;3.55;;;8.60;88.50;;;;;;20442494;28;20738;-46
2022/03/03 19:37:24;;;;;;;9.18;4.03;;;8.40;91.20;;;;;;20474677;28;20498;-46
2022/03/03 19:47:26;;;;;;;8.80;3.33;;;8.20;92.70;;;;;;20589489;28;20551;-46
2022/03/03 19:57:28;;;;;;;9.48;3.92;;;8.00;94.30;;;;;;20596750;28;20054;-45
2022/03/03 20:07:30;;;;;;;10.13;3.65;;;7.60;96.30;;;;;;20576934;28;20038;-46
2022/03/03 20:17:31;;;;;;;9.90;4.63;;;7.40;97.00;;;;;;20584016;28;20047;-46
2022/03/03 20:27:33;;;;;;;8.95;3.97;;;7.10;98.60;;;;;;20617567;28;20047;-45
2022/03/03 20:37:34;;;;;;;11.52;4.50;;;7.00;99.00;;;;;;20589671;28;20257;-46
2022/03/03 20:47:36;;;;;;;11.18;4.70;;;6.90;99.90;;;;;;20581122;28;20486;-46
2022/03/03 20:57:37;;;;;;;13.93;4.47;;;6.90;99.90;;;;;;20565194;28;20039;-45
2022/03/03 21:07:40;;;;;;;14.73;4.15;;;6.70;99.30;;;;;;20588544;28;20046;-45
2022/03/03 21:17:41;;;;;;;10.48;5.03;;;6.70;99.60;;;;;;20580827;28;20047;-46
2022/03/03 21:27:43;;;;;;;11.38;4.57;;;6.60;99.50;;;;;;20583234;28;20220;-46
2022/03/03 21:37:44;;;;;;;9.65;3.40;;;6.60;98.70;;;;;;20585567;28;20050;-46
2022/03/03 21:47:45;;;;;;;9.48;4.35;;;6.50;99.10;;;;;;20580576;28;20054;-45
2022/03/03 21:57:47;;;;;;;14.02;4.40;;;6.40;98.70;;;;;;20575806;28;20046;-45
2022/03/03 22:07:49;;;;;;;10.38;3.47;;;6.40;98.20;;;;;;20582055;28;20049;-45
2022/03/03 22:17:50;;;;;;;9.07;4.13;;;6.50;98.30;;;;;;20583409;28;20049;-45
2022/03/03 22:27:52;;;;;;;9.20;3.42;;;6.30;98.40;;;;;;20590293;28;20506;-46
2022/03/03 22:37:54;;;;;;;10.88;4.00;;;6.20;98.60;;;;;;20580146;28;20271;-46
2022/03/03 22:47:55;;;;;;;7.72;3.42;;;6.00;99.20;;;;;;20585058;28;20054;-45
2022/03/03 22:57:56;;;;;;;7.88;3.03;;;5.80;99.60;;;;;;20594380;28;20772;-45
2022/03/03 23:07:57;;;;;;;14.75;3.88;;;5.70;99.40;;;;;;20584162;28;20035;-45
2022/03/03 23:18:01;;;;;;;9.15;3.42;;;5.70;99.70;;;;;;20581184;28;20050;-46
2022/03/03 23:28:03;;;;;;;8.75;4.13;;;5.50;99.80;;;;;;20580626;28;20037;-46
2022/03/03 23:38:04;;;;;;;9.43;3.72;;;5.60;99.90;;;;;;20526655;28;20058;-45
2022/03/03 23:48:06;;;;;;;9.35;4.70;;;5.50;99.90;;;;;;20488546;28;20053;-45
2022/03/03 23:58:07;;;;;;;8.82;3.13;;;5.40;99.90;;;;;;20590907;28;20046;-45
